Terminal Aerodrome Forecast
Issued by NWS

Home | Current Version | Previous Version | Text Only | Print | Product List | Glossary On
Versions: 1 2 3 4 5 6 7 8 9 10 11 12 13 14 15 16 17 18 19 20 21 22 23 24 25 26 27 28 29 30 31
000
FTUS45 KREV 240529
TAFCXP
TAF
KCXP 240529Z 2406/2506 VRB03KT P6SM SKC
     FM241600 16006KT P6SM FEW100 SCT200
     FM241900 22013G20KT P6SM SCT100 BKN200
     FM242100 25014G26KT P6SM VCSH SCT050 BKN100
     FM250100 29011G19KT P6SM SCT050 BKN100=

USA.gov is the U.S. government's official web portal to all federal, state and local government web resources and services.